Time;durP1;ratioP1;P1;durP2;ratioP2;P2;SDS_P1;SDS_P2;PMS_P1;PMS_P2;Temp;Humidity;BMP_temperature;BMP_pressure;BME280_temperature;BME280_humidity;BME280_pressure;Samples;Min_cycle;Max_cycle;Signal;HPM_P1;HPM_P2
2022/12/13 00:01:37;;;;;;;1.80;1.70;;;;;;;4.39;100.00;8295.63;5093919;28;20670;-62
2022/12/13 00:04:07;;;;;;;1.20;1.20;;;;;;;4.36;100.00;8612.22;5093928;28;20631;-62
2022/12/13 00:06:35;;;;;;;1.37;1.37;;;;;;;4.29;100.00;8293.69;5094023;28;20180;-63
2022/12/13 00:09:03;;;;;;;1.13;1.13;;;;;;;4.36;100.00;8929.28;5093465;28;20215;-62
2022/12/13 00:11:30;;;;;;;1.07;1.07;;;;;;;4.32;100.00;10197.44;5093346;28;20185;-63
2022/12/13 00:13:58;;;;;;;1.03;1.03;;;;;;;4.25;100.00;12417.44;5093523;28;20188;-63
2022/12/13 00:16:26;;;;;;;1.20;1.20;;;;;;;4.20;100.00;12733.75;5093463;28;20227;-62
2022/12/13 00:18:55;;;;;;;1.30;1.30;;;;;;;4.28;100.00;14006.00;5093244;28;20184;-62
2022/12/13 00:21:23;;;;;;;0.90;0.90;;;;;;;4.29;100.00;13688.78;5093203;28;20191;-62
2022/12/13 00:23:51;;;;;;;1.03;1.03;;;;;;;4.29;100.00;13688.66;5093276;28;20191;-62
2022/12/13 00:26:21;;;;;;;0.80;0.80;;;;;;;4.22;100.00;14639.59;5093111;28;20231;-62
2022/12/13 00:28:50;;;;;;;0.90;0.90;;;;;;;4.19;100.00;13368.50;5093013;28;20188;-62
2022/12/13 00:31:19;;;;;;;0.83;0.83;;;;;;;4.30;100.00;10514.41;5093203;28;20257;-62
2022/12/13 00:33:47;;;;;;;1.07;1.07;;;;;;;4.28;100.00;11148.50;5093174;28;20271;-63
2022/12/13 00:36:14;;;;;;;0.93;0.93;;;;;;;4.30;100.00;11783.78;5093411;28;20318;-62
2022/12/13 00:38:41;;;;;;;1.10;1.10;;;;;;;4.18;100.00;12098.25;5093044;28;20256;-63
2022/12/13 00:41:13;;;;;;;1.10;1.10;;;;;;;4.22;100.00;11464.56;5092919;28;20191;-64
2022/12/13 00:43:41;;;;;;;1.17;1.17;;;;;;;4.34;100.00;11149.91;5092986;28;20188;-62
2022/12/13 00:46:13;;;;;;;1.37;1.37;;;;;;;4.20;100.00;12098.84;5092893;28;20603;-62
2022/12/13 00:48:42;;;;;;;1.47;1.43;;;;;;;4.16;100.00;9242.56;5092216;28;20554;-63
2022/12/13 00:51:10;;;;;;;0.90;0.90;;;;;;;4.30;100.00;8928.22;5092469;28;20188;-63
2022/12/13 00:53:38;;;;;;;2.10;1.20;;;;;;;4.41;100.00;7978.78;5092495;28;20195;-63
2022/12/13 00:56:10;;;;;;;1.13;1.13;;;;;;;4.39;100.00;8929.88;5092645;28;20212;-64
2022/12/13 00:58:37;;;;;;;1.00;1.00;;;;;;;4.34;100.00;10197.97;5092843;28;20195;-64
2022/12/13 01:01:04;;;;;;;1.20;1.20;;;;;;;4.34;100.00;9246.19;5092611;28;20199;-63
2022/12/13 01:03:31;;;;;;;0.93;0.93;;;;;;;4.33;100.00;9245.91;5092414;28;20187;-64
2022/12/13 01:06:01;;;;;;;1.13;1.13;;;;;;;4.31;100.00;10197.22;5092817;28;20183;-64
2022/12/13 01:08:28;;;;;;;1.20;1.20;;;;;;;4.30;100.00;9562.50;5092614;28;20659;-63
2022/12/13 01:10:55;;;;;;;1.20;1.20;;;;;;;4.21;100.00;9877.94;5092627;28;20245;-64
2022/12/13 01:13:22;;;;;;;1.40;1.40;;;;;;;4.16;100.00;7657.34;5092108;28;20206;-64
2022/12/13 01:15:49;;;;;;;1.33;1.30;;;;;;;4.30;100.00;7025.72;5092254;28;20658;-63
2022/12/13 01:18:18;;;;;;;1.03;1.03;;;;;;;4.26;100.00;6074.41;5092495;28;20566;-64
2022/12/13 01:20:56;;;;;;;1.30;1.30;;;;;;;4.35;100.00;6709.56;5092400;28;20241;-63
2022/12/13 01:23:24;;;;;;;1.23;1.23;;;;;;;4.33;100.00;6709.25;5092241;28;20180;-63
2022/12/13 01:25:51;;;;;;;1.20;1.20;;;;;;;4.38;100.00;7344.16;5091734;28;20233;-64
2022/12/13 01:28:18;;;;;;;1.30;1.20;;;;;;;4.36;100.00;8612.13;5092004;28;20205;-64
2022/12/13 01:30:45;;;;;;;1.00;1.00;;;;;;;4.26;100.00;7659.13;5091917;28;20191;-63
2022/12/13 01:33:12;;;;;;;1.20;1.20;;;;;;;4.39;100.00;7661.31;5092200;28;20258;-64
2022/12/13 01:35:38;;;;;;;1.00;1.00;;;;;;;4.41;100.00;7344.59;5091759;28;20219;-63
2022/12/13 01:38:05;;;;;;;1.00;1.00;;;;;;;4.44;100.00;7345.09;5092016;28;20183;-63
2022/12/13 01:40:33;;;;;;;1.30;1.30;;;;;;;4.38;100.00;7344.06;5091654;28;20271;-63
2022/12/13 01:43:00;;;;;;;1.20;1.20;;;;;;;4.42;100.00;7027.78;5091867;28;20184;-64
2022/12/13 01:45:28;;;;;;;1.30;1.30;;;;;;;4.37;100.00;7026.94;5092024;28;20191;-63
2022/12/13 01:47:58;;;;;;;1.27;1.27;;;;;;;4.39;100.00;7027.28;5091752;28;20184;-64
2022/12/13 01:50:31;;;;;;;1.20;1.20;;;;;;;4.41;100.00;5759.66;5091807;28;20196;-63
2022/12/13 01:52:59;;;;;;;1.30;1.30;;;;;;;4.44;100.00;6077.03;5091734;28;20184;-64
2022/12/13 01:55:30;;;;;;;1.83;1.73;;;;;;;4.43;100.00;5126.16;5091539;28;20195;-64
2022/12/13 01:58:01;;;;;;;1.40;1.40;;;;;;;4.50;100.00;4176.53;5091395;28;20177;-64
2022/12/13 02:00:28;;;;;;;1.70;1.60;;;;;;;4.54;100.00;4493.84;5090604;28;20192;-64
2022/12/13 02:02:58;;;;;;;1.40;1.40;;;;;;;4.49;100.00;6394.78;5091522;28;20191;-64
2022/12/13 02:05:28;;;;;;;1.70;1.60;;;;;;;4.40;100.00;6076.50;5091322;28;20183;-64
2022/12/13 02:07:57;;;;;;;2.77;2.57;;;;;;;4.39;100.00;6710.19;5091585;28;20191;-64
2022/12/13 02:10:24;;;;;;;1.40;1.40;;;;;;;4.48;100.00;7028.78;5091313;28;20195;-64
2022/12/13 02:12:52;;;;;;;2.23;1.90;;;;;;;4.46;100.00;6711.41;5091278;28;20282;-65
2022/12/13 02:15:22;;;;;;;1.87;1.80;;;;;;;4.44;100.00;8296.56;5091191;28;20195;-65
2022/12/13 02:18:04;;;;;;;1.87;1.87;;;;;;;4.37;100.00;9563.94;5091202;28;20184;-64
2022/12/13 02:20:57;;;;;;;1.50;1.50;;;;;;;4.30;100.00;8293.94;5091556;28;20196;-64
2022/12/13 02:23:54;;;;;;;1.73;1.73;;;;;;;4.23;100.00;7341.59;5089311;28;20210;-64
2022/12/13 02:26:59;;;;;;;1.70;1.70;;;;;;;4.36;100.00;6392.75;5091270;28;20702;-65
2022/12/13 02:29:48;;;;;;;1.80;1.80;;;;;;;4.35;100.00;6075.75;5091162;28;20184;-65
2022/12/13 02:32:25;;;;;;;1.60;1.60;;;;;;;4.40;100.00;5125.75;5091484;28;20283;-65
2022/12/13 02:34:59;;;;;;;2.07;1.93;;;;;;;4.14;100.00;6072.69;5091072;28;20199;-65
2022/12/13 02:37:33;;;;;;;1.93;1.90;;;;;;;4.31;100.00;7025.88;5091270;28;20216;-65
2022/12/13 02:40:07;;;;;;;1.77;1.77;;;;;;;4.38;100.00;6076.19;5091024;28;20571;-64
2022/12/13 02:42:40;;;;;;;1.70;1.70;;;;;;;4.37;100.00;7026.94;5091059;28;20191;-65
2022/12/13 02:45:11;;;;;;;1.83;1.83;;;;;;;4.41;100.00;6393.53;5090994;28;20638;-65
2022/12/13 02:47:43;;;;;;;2.10;2.00;;;;;;;4.47;100.00;6394.47;5091000;28;20180;-65
2022/12/13 02:50:13;;;;;;;2.40;2.20;;;;;;;4.51;100.00;6395.06;5091227;28;20285;-65
2022/12/13 02:52:42;;;;;;;2.03;2.03;;;;;;;4.54;100.00;5761.59;5091139;28;20180;-65
2022/12/13 02:55:13;;;;;;;2.03;2.03;;;;;;;4.53;100.00;5761.44;5090851;28;20571;-65
2022/12/13 02:57:43;;;;;;;1.90;1.90;;;;;;;4.44;100.00;6394.00;5091166;28;20578;-64
2022/12/13 03:00:14;;;;;;;2.03;1.93;;;;;;;4.61;100.00;7030.84;5090875;28;20260;-64
2022/12/13 03:02:53;;;;;;;2.10;2.00;;;;;;;4.66;100.00;7348.75;5091015;28;20188;-66
2022/12/13 03:08:22;;;;;;;1.40;1.40;;;;;;;4.62;100.00;16877.06;5091158;28;20645;-65
2022/12/13 03:10:57;;;;;;;1.73;1.73;;;;;;;4.51;100.00;20080.19;5092468;28;20184;-64
2022/12/13 03:13:37;;;;;;;1.93;1.57;;;;;;;4.54;100.00;20370.03;5094864;28;20188;-65
2022/12/13 03:16:14;;;;;;;2.00;1.97;;;;;;;4.63;100.00;18274.31;5094341;28;20211;-65
2022/12/13 03:18:44;;;;;;;2.00;1.90;;;;;;;4.64;100.00;15605.41;5094374;28;20220;-66
2022/12/13 03:21:12;;;;;;;1.47;1.47;;;;;;;4.59;100.00;14332.47;5094630;28;20206;-65
2022/12/13 03:23:39;;;;;;;1.50;1.50;;;;;;;4.56;100.00;13378.31;5094333;28;20184;-65
2022/12/13 03:26:10;;;;;;;1.60;1.60;;;;;;;4.46;100.00;13375.75;5094048;28;20228;-65
2022/12/13 03:28:37;;;;;;;1.43;1.43;;;;;;;4.45;100.00;14328.50;5094304;28;20194;-65
2022/12/13 03:31:04;;;;;;;1.73;1.73;;;;;;;4.50;100.00;12423.78;5094706;28;20560;-65
2022/12/13 03:33:31;;;;;;;1.60;1.60;;;;;;;4.36;100.00;13690.56;5094495;28;20190;-66
2022/12/13 03:35:59;;;;;;;1.70;1.70;;;;;;;4.43;100.00;12422.00;5094635;28;20216;-65
2022/12/13 03:38:27;;;;;;;1.77;1.77;;;;;;;4.42;100.00;14010.06;5095218;28;20582;-65
2022/12/13 03:40:57;;;;;;;1.80;1.80;;;;;;;4.32;100.00;13689.59;5094766;28;20192;-65
2022/12/13 03:43:24;;;;;;;1.80;1.80;;;;;;;4.46;100.00;13693.44;5094622;28;20199;-66
2022/12/13 03:45:52;;;;;;;2.00;2.00;;;;;;;4.54;100.00;12742.56;5094455;28;20278;-64
2022/12/13 03:48:19;;;;;;;2.27;2.17;;;;;;;4.58;100.00;12425.81;5094705;28;20191;-65
2022/12/13 03:50:46;;;;;;;1.90;1.90;;;;;;;4.61;100.00;12744.25;5094074;28;20686;-65
2022/12/13 03:53:14;;;;;;;2.33;2.23;;;;;;;4.47;100.00;14964.81;5093956;28;20188;-65
2022/12/13 03:55:41;;;;;;;2.67;2.57;;;;;;;4.26;100.00;16547.41;5094535;28;20627;-66
2022/12/13 03:58:08;;;;;;;2.43;2.23;;;;;;;4.16;100.00;16862.19;5094059;28;20184;-66
2022/12/13 04:00:35;;;;;;;2.63;2.53;;;;;;;3.96;100.00;20989.13;5093806;28;20188;-65
2022/12/13 04:03:02;;;;;;;2.90;2.80;;;;;;;3.75;100.00;25754.75;5094070;28;20269;-67
2022/12/13 04:05:29;;;;;;;3.13;3.03;;;;;;;3.39;100.00;29559.78;5093661;28;20192;-66
2022/12/13 04:07:56;;;;;;;3.30;3.20;;;;;;;3.35;100.00;34659.56;5093466;28;20279;-65
2022/12/13 04:10:25;;;;;;;2.87;2.77;;;;;;;3.20;100.00;36565.44;5093613;28;20194;-65
2022/12/13 04:15:36;;;;;;;4.03;3.83;;;;;;;3.00;100.00;42301.66;5093523;28;20640;-66
2022/12/13 04:18:03;;;;;;;4.30;4.10;;;;;;;2.86;100.00;46448.59;5093550;28;20603;-66
2022/12/13 04:20:30;;;;;;;4.33;4.13;;;;;;;2.87;100.00;45809.47;5093393;28;20204;-65
2022/12/13 04:22:57;;;;;;;4.40;4.20;;;;;;;2.90;100.00;45172.44;5092379;28;20191;-65
2022/12/13 04:25:25;;;;;;;4.40;4.20;;;;;;;2.66;100.00;46752.56;5093230;28;20710;-66
2022/12/13 04:27:52;;;;;;;4.70;4.50;;;;;;;2.75;100.00;46120.09;5093452;28;20688;-65
2022/12/13 04:30:19;;;;;;;5.10;4.80;;;;;;;2.67;100.00;47393.72;5093082;28;20646;-66
2022/12/13 04:32:45;;;;;;;4.60;4.40;;;;;;;2.65;100.00;50913.28;5093457;28;20192;-65
2022/12/13 04:35:12;;;;;;;4.57;4.33;;;;;;;2.51;100.00;53784.16;5092902;28;20191;-64
2022/12/13 04:37:39;;;;;;;5.13;4.83;;;;;;;2.62;100.00;52512.94;5093481;28;20581;-65
2022/12/13 04:40:07;;;;;;;4.97;4.77;;;;;;;2.50;100.00;53142.28;5092900;28;20203;-66
2022/12/13 04:42:35;;;;;;;5.13;4.83;;;;;;;2.55;100.00;53146.91;5093247;28;20194;-67
2022/12/13 04:45:02;;;;;;;5.27;5.07;;;;;;;2.34;100.00;54730.06;5092815;28;20181;-65
2022/12/13 04:47:29;;;;;;;5.90;5.60;;;;;;;2.39;100.00;52171.03;5092691;28;20187;-66
2022/12/13 04:49:56;;;;;;;6.10;5.70;;;;;;;2.39;100.00;47050.16;5092981;28;20184;-65
2022/12/13 04:52:23;;;;;;;6.70;6.40;;;;;;;2.37;100.00;46089.66;5092814;28;20185;-66
2022/12/13 04:54:50;;;;;;;6.30;6.00;;;;;;;2.33;100.00;46086.00;5093119;28;20641;-66
2022/12/13 04:57:17;;;;;;;6.00;5.70;;;;;;;2.29;100.00;46403.25;5092776;28;20549;-66
2022/12/13 04:59:45;;;;;;;6.93;6.43;;;;;;;2.25;100.00;47039.41;5092435;28;20188;-66
2022/12/13 05:02:12;;;;;;;6.17;5.77;;;;;;;2.19;100.00;47993.28;5092829;28;20260;-66
2022/12/13 05:04:39;;;;;;;5.93;5.63;;;;;;;2.14;100.00;48309.28;5092674;28;20184;-67
2022/12/13 05:07:06;;;;;;;7.00;6.57;;;;;;;2.07;100.00;50542.00;5092349;28;20271;-66
2022/12/13 05:09:33;;;;;;;6.50;6.17;;;;;;;1.96;100.00;48293.56;5092485;28;20665;-65
2022/12/13 05:12:00;;;;;;;6.27;5.97;;;;;;;1.97;100.00;49893.38;5092496;28;20584;-65
2022/12/13 05:14:27;;;;;;;6.33;5.93;;;;;;;1.97;100.00;50853.09;5092202;28;20209;-65
2022/12/13 05:16:55;;;;;;;7.00;6.50;;;;;;;2.04;100.00;52780.28;5092253;28;20208;-67
2022/12/13 05:19:22;;;;;;;6.60;6.20;;;;;;;2.03;100.00;50538.47;5092120;28;20638;-67
2022/12/13 05:21:49;;;;;;;7.93;7.47;;;;;;;2.05;100.00;52140.91;5092232;28;20623;-66
2022/12/13 05:24:16;;;;;;;7.20;6.70;;;;;;;2.04;100.00;56304.03;5092145;28;20558;-63
2022/12/13 05:26:43;;;;;;;7.23;6.73;;;;;;;2.02;100.00;59829.41;5091917;28;20180;-66
2022/12/13 05:29:10;;;;;;;7.60;7.20;;;;;;;2.04;100.00;65610.97;5092215;28;20611;-65
2022/12/13 05:31:37;;;;;;;6.90;6.60;;;;;;;2.05;100.00;63042.50;5091874;28;20184;-66
2022/12/13 05:34:05;;;;;;;6.97;6.57;;;;;;;1.84;100.00;60131.94;5092049;28;20547;-66
2022/12/13 05:36:32;;;;;;;7.50;7.10;;;;;;;1.89;100.00;63667.19;5092116;28;20590;-66
2022/12/13 05:38:58;;;;;;;7.90;7.30;;;;;;;1.84;100.00;72342.31;5092032;28;20228;-66
2022/12/13 05:41:29;;;;;;;7.23;6.83;;;;;;;1.72;100.00;80383.00;5092103;28;20631;-65
2022/12/13 05:43:56;;;;;;;6.87;6.47;;;;;;;1.79;100.00;82329.13;5091537;28;20198;-67
2022/12/13 05:46:23;;;;;;;8.43;7.83;;;;;;;1.87;100.00;82986.28;5091650;28;20191;-65
2022/12/13 05:48:50;;;;;;;8.23;7.43;;;;;;;1.90;100.00;76537.72;5092009;28;20559;-66
2022/12/13 05:51:18;;;;;;;7.07;6.67;;;;;;;1.88;100.00;73313.25;5091929;28;20180;-67
2022/12/13 05:53:46;;;;;;;7.20;6.70;;;;;;;1.79;100.00;75557.09;5091644;28;20189;-67
2022/12/13 05:56:13;;;;;;;7.80;7.30;;;;;;;1.97;100.00;78159.22;5091912;28;20613;-67
2022/12/13 05:58:41;;;;;;;7.97;7.37;;;;;;;1.67;100.00;87480.91;5091373;28;20218;-65
2022/12/13 06:01:11;;;;;;;7.60;6.80;;;;;;;1.87;100.00;92687.81;5091336;28;20187;-66
2022/12/13 06:03:38;;;;;;;7.10;6.50;;;;;;;1.76;100.00;94289.56;5092006;28;20189;-57
2022/12/13 06:06:07;;;;;;;7.47;6.87;;;;;;;1.80;100.00;95916.16;5091332;28;20244;-58
2022/12/13 06:08:35;;;;;;;7.43;6.83;;;;;;;1.74;100.00;98499.81;5091507;28;20184;-59
2022/12/13 06:11:03;;;;;;;7.13;6.70;;;;;;;1.85;100.00;96896.94;5091743;28;20191;-60
2022/12/13 06:13:30;;;;;;;6.60;6.20;;;;;;;1.90;100.00;92044.94;5083803;28;20288;-60
2022/12/13 06:16:01;;;;;;;7.27;6.67;;;;;;;1.97;100.00;93998.75;5091317;28;20188;-66
2022/12/13 06:18:29;;;;;;;6.50;6.10;;;;;;;1.81;100.00;93325.94;5091495;28;20246;-66
2022/12/13 06:20:57;;;;;;;7.60;7.20;;;;;;;1.92;100.00;96260.13;5091555;28;20184;-66
2022/12/13 06:23:24;;;;;;;7.67;6.97;;;;;;;1.66;100.00;99134.84;5091520;28;20180;-67
2022/12/13 06:25:53;;;;;;;8.17;7.67;;;;;;;2.05;100.00;112857.81;5091324;28;20232;-67
2022/12/13 06:28:20;;;;;;;6.90;6.40;;;;;;;2.16;100.00;129578.97;5090241;28;20642;-67
2022/12/13 06:30:46;;;;;;;7.23;6.73;;;;;;;2.13;100.00;144902.56;5091180;28;20530;-67
2022/12/13 06:33:13;;;;;;;7.10;6.43;;;;;;;2.22;100.00;146617.22;5091369;28;20623;-66
2022/12/13 06:35:41;;;;;;;6.83;6.13;;;;;;;2.20;100.00;146613.50;5091495;28;20534;-68
2022/12/13 06:38:08;;;;;;;8.07;7.20;;;;;;;2.33;100.00;146644.88;5091473;28;20184;-66
2022/12/13 06:40:35;;;;;;;6.90;6.27;;;;;;;2.32;100.00;146641.09;5090214;28;20199;-67
2022/12/13 06:43:04;;;;;;;6.63;6.17;;;;;;;2.39;100.00;146658.66;5091366;28;20187;-63
2022/12/13 06:45:31;;;;;;;7.63;6.53;;;;;;;2.23;100.00;146621.00;5090876;28;20199;-63
2022/12/13 06:47:58;;;;;;;7.50;6.87;;;;;;;2.35;100.00;146571.47;5094971;28;20207;-66
2022/12/13 06:50:25;;;;;;;8.23;7.67;;;;;;;2.34;100.00;146646.09;5095237;28;20192;-63
2022/12/13 06:52:52;;;;;;;7.60;6.93;;;;;;;2.30;100.00;146638.56;5095141;28;20262;-64
2022/12/13 06:55:19;;;;;;;10.63;7.03;;;;;;;2.10;100.00;146588.38;5094517;28;20191;-67
2022/12/13 06:57:46;;;;;;;7.07;6.47;;;;;;;2.12;100.00;146231.00;5094590;28;20203;-67
2022/12/13 07:00:15;;;;;;;7.27;6.77;;;;;;;2.25;100.00;144386.41;5094597;28;20197;-69
2022/12/13 07:02:42;;;;;;;9.03;8.43;;;;;;;2.10;100.00;144461.03;5094503;28;20184;-67
2022/12/13 07:05:10;;;;;;;10.70;7.70;;;;;;;2.28;100.00;132104.72;5094479;28;20184;-66
2022/12/13 07:07:37;;;;;;;8.17;7.50;;;;;;;2.38;100.00;135358.19;5094627;28;20211;-67
2022/12/13 07:10:05;;;;;;;12.57;8.43;;;;;;;2.52;100.00;138695.38;5094479;28;20188;-67
2022/12/13 07:12:31;;;;;;;7.83;7.27;;;;;;;2.56;100.00;146701.34;5093367;28;20195;-66
2022/12/13 07:14:58;;;;;;;15.93;7.83;;;;;;;2.55;100.00;146698.81;5094330;28;20202;-65
2022/12/13 07:17:27;;;;;;;9.87;7.20;;;;;;;2.68;100.00;146731.47;5094434;28;20190;-66
2022/12/13 07:19:53;;;;;;;12.93;8.30;;;;;;;2.76;100.00;146751.53;5094562;28;20190;-66
2022/12/13 07:22:20;;;;;;;13.53;8.33;;;;;;;2.93;100.00;146794.25;5094718;28;20187;-66
2022/12/13 07:24:47;;;;;;;9.47;8.63;;;;;;;3.10;100.00;146836.97;5094482;28;20729;-65
2022/12/13 07:27:14;;;;;;;11.50;8.13;;;;;;;3.25;100.00;146872.16;5094821;28;20211;-64
2022/12/13 07:29:41;;;;;;;14.33;8.27;;;;;;;3.44;100.00;146919.88;5094886;28;20184;-64
2022/12/13 07:32:08;;;;;;;19.60;7.63;;;;;;;3.60;100.00;146960.13;5094774;28;20184;-66
2022/12/13 07:34:36;;;;;;;10.17;7.90;;;;;;;3.66;100.00;146975.16;5095657;28;20186;-67
2022/12/13 07:37:03;;;;;;;7.77;6.93;;;;;;;3.65;100.00;146972.66;5094535;28;20200;-65
2022/12/13 07:39:31;;;;;;;7.60;6.50;;;;;;;3.55;100.00;146947.53;5095083;28;20653;-66
2022/12/13 07:41:58;;;;;;;6.57;6.17;;;;;;;3.58;100.00;146955.06;5094310;28;20760;-63
2022/12/13 07:44:26;;;;;;;15.97;7.60;;;;;;;3.45;100.00;146923.66;5095115;28;20268;-63
2022/12/13 07:46:53;;;;;;;15.13;7.87;;;;;;;3.87;100.00;147027.97;5093959;28;20271;-65
2022/12/13 07:49:20;;;;;;;9.23;7.37;;;;;;;3.88;100.00;147029.22;5094031;28;20278;-66
2022/12/13 07:51:48;;;;;;;16.60;7.67;;;;;;;4.02;100.00;147064.44;5094776;28;20259;-66
2022/12/13 07:54:15;;;;;;;10.00;6.93;;;;;;;3.87;100.00;147026.69;5094570;28;20294;-66
2022/12/13 07:56:42;;;;;;;9.87;6.50;;;;;;;3.89;100.00;147033.00;5094078;28;20206;-66
2022/12/13 07:59:09;;;;;;;7.70;7.00;;;;;;;3.67;100.00;146978.97;5094053;28;20201;-66
2022/12/13 08:01:36;;;;;;;10.00;6.47;;;;;;;3.84;100.00;147019.16;5094334;28;20235;-66
2022/12/13 08:04:04;;;;;;;11.20;6.00;;;;;;;3.72;100.00;146990.28;5093887;28;20275;-67
2022/12/13 08:06:34;;;;;;;11.70;6.73;;;;;;;3.72;100.00;146990.28;5094039;28;20654;-65
2022/12/13 08:09:02;;;;;;;21.03;7.63;;;;;;;3.87;100.00;147026.69;5093543;28;20570;-67
2022/12/13 08:11:29;;;;;;;10.87;7.63;;;;;;;3.86;100.00;147024.22;5093450;28;20203;-66
2022/12/13 08:13:56;;;;;;;7.23;6.67;;;;;;;4.14;100.00;147094.59;5092483;28;20188;-65
2022/12/13 08:16:23;;;;;;;9.33;6.40;;;;;;;4.59;100.00;147206.50;5093436;28;20196;-67
2022/12/13 08:18:50;;;;;;;7.93;6.70;;;;;;;4.87;100.00;147276.97;5091962;28;20191;-63
2022/12/13 08:21:17;;;;;;;7.53;6.80;;;;;;;5.60;100.00;147458.16;5093281;28;20189;-64
2022/12/13 08:23:44;;;;;;;6.80;6.07;;;;;;;6.16;100.00;147596.72;5093398;28;20595;-65
2022/12/13 08:26:13;;;;;;;8.97;5.67;;;;;;;6.47;100.00;147674.81;5093401;28;20238;-65
2022/12/13 08:28:39;;;;;;;6.67;6.10;;;;;;;6.47;100.00;147673.56;5093072;28;20574;-66
2022/12/13 08:31:10;;;;;;;7.77;6.10;;;;;;;6.46;100.00;147672.28;5093679;28;20188;-65
2022/12/13 08:33:38;;;;;;;7.70;6.93;;;;;;;6.45;100.00;147669.75;5093491;28;20184;-66
2022/12/13 08:36:09;;;;;;;11.93;6.53;;;;;;;6.54;100.00;147692.44;5093261;28;20196;-64
2022/12/13 08:38:36;;;;;;;9.47;6.50;;;;;;;6.27;100.00;147624.44;5093139;28;20516;-64
2022/12/13 08:41:03;;;;;;;7.20;6.43;;;;;;;6.47;100.00;147674.81;5092223;28;20188;-65
2022/12/13 08:43:32;;;;;;;9.33;7.03;;;;;;;6.20;100.00;147606.78;5093307;28;20199;-64
2022/12/13 08:45:58;;;;;;;8.43;7.40;;;;;;;5.67;100.00;147475.81;5092903;28;20189;-65
2022/12/13 08:48:25;;;;;;;14.93;6.77;;;;;;;5.60;100.00;147458.16;5092731;28;20200;-65
2022/12/13 08:50:52;;;;;;;10.13;7.00;;;;;;;5.71;100.00;147485.88;5092514;28;20301;-64
2022/12/13 08:53:19;;;;;;;9.57;7.30;;;;;;;5.92;100.00;147538.81;5093010;28;20196;-65
2022/12/13 08:55:49;;;;;;;7.60;6.90;;;;;;;6.11;100.00;147585.38;5093251;28;20311;-65
2022/12/13 08:58:16;;;;;;;7.37;6.77;;;;;;;6.01;100.00;147558.94;5092579;28;20180;-65
2022/12/13 09:00:45;;;;;;;6.63;6.07;;;;;;;5.92;100.00;147538.81;5092371;28;20191;-66
2022/12/13 09:03:12;;;;;;;6.40;5.93;;;;;;;5.95;100.00;147546.34;5092911;28;20245;-64
2022/12/13 09:05:39;;;;;;;6.40;5.87;;;;;;;6.09;100.00;147579.09;5093683;28;20192;-64
2022/12/13 09:08:06;;;;;;;6.47;6.03;;;;;;;6.10;100.00;147581.63;5092083;28;20204;-66
2022/12/13 09:10:33;;;;;;;6.43;6.03;;;;;;;6.20;100.00;147606.78;5092600;28;20194;-63
2022/12/13 09:13:00;;;;;;;6.40;5.90;;;;;;;6.49;100.00;147679.88;5092380;28;20207;-63
2022/12/13 09:15:27;;;;;;;6.07;5.67;;;;;;;6.76;100.00;147747.91;5092577;28;20211;-65
2022/12/13 09:17:55;;;;;;;7.33;5.70;;;;;;;7.21;100.00;147860.03;5092200;28;20185;-64
2022/12/13 09:20:22;;;;;;;7.60;6.80;;;;;;;7.28;100.00;147876.44;5092396;28;20183;-63
2022/12/13 09:22:49;;;;;;;14.80;6.83;;;;;;;7.01;100.00;147808.38;5092245;28;20606;-65
2022/12/13 09:25:17;;;;;;;7.93;6.37;;;;;;;7.15;100.00;147844.94;5091912;28;20235;-64
2022/12/13 09:27:43;;;;;;;8.30;6.17;;;;;;;7.17;100.00;147848.75;5091754;28;20212;-64
2022/12/13 09:30:12;;;;;;;5.53;5.23;;;;;;;7.08;100.00;147826.03;5091611;28;20223;-64
2022/12/13 09:32:40;;;;;;;8.50;6.87;;;;;;;7.22;100.00;147861.31;5091929;28;20188;-64
2022/12/13 09:35:09;;;;;;;6.30;5.80;;;;;;;6.81;100.00;147760.50;5091445;28;20218;-64
2022/12/13 09:37:36;;;;;;;7.70;6.17;;;;;;;6.83;100.00;147764.31;5092117;28;20184;-64
2022/12/13 09:40:04;;;;;;;7.90;7.10;;;;;;;6.82;100.00;147761.78;5091860;28;20191;-65
2022/12/13 09:42:36;;;;;;;6.20;5.80;;;;;;;7.11;100.00;147834.88;5092743;28;20551;-64
2022/12/13 09:45:06;;;;;;;6.93;6.20;;;;;;;6.96;100.00;147795.81;5090342;28;20274;-65
2022/12/13 09:47:37;;;;;;;5.87;5.57;;;;;;;7.33;100.00;147889.06;5091809;28;20663;-64
2022/12/13 09:50:08;;;;;;;5.93;5.43;;;;;;;7.61;100.00;147958.41;5091736;28;20184;-62
2022/12/13 09:52:40;;;;;;;7.87;6.43;;;;;;;7.36;100.00;147896.63;5091511;28;20192;-64
2022/12/13 09:55:19;;;;;;;6.43;5.83;;;;;;;7.41;100.00;147909.25;5091238;28;20234;-65
2022/12/13 09:57:50;;;;;;;5.83;5.30;;;;;;;7.46;100.00;147921.84;5090962;28;20191;-65
2022/12/13 10:00:20;;;;;;;5.50;5.00;;;;;;;7.67;100.00;147974.81;5091500;28;20195;-63
2022/12/13 10:02:49;;;;;;;5.90;5.47;;;;;;;8.21;99.84;148109.75;5091327;28;20189;-64
2022/12/13 10:05:21;;;;;;;4.97;4.77;;;;;;;8.71;95.60;148233.47;5091948;28;20191;-63
2022/12/13 10:07:50;;;;;;;5.50;5.10;;;;;;;9.68;84.95;148474.59;5092374;28;20253;-65
2022/12/13 10:10:17;;;;;;;5.27;4.97;;;;;;;10.18;79.30;148599.78;5091461;28;20195;-65
2022/12/13 10:12:48;;;;;;;5.40;5.00;;;;;;;10.93;78.17;148789.38;5091636;28;20191;-65
2022/12/13 10:15:19;;;;;;;5.00;4.70;;;;;;;11.13;70.36;148838.66;5091666;28;20219;-65
2022/12/13 10:17:49;;;;;;;5.57;5.27;;;;;;;11.42;68.11;148910.75;5090827;28;20241;-63
2022/12/13 10:20:18;;;;;;;5.47;5.10;;;;;;;11.30;66.91;148881.66;5092107;28;20188;-63
2022/12/13 10:22:45;;;;;;;4.73;4.43;;;;;;;11.31;66.68;148884.22;5095499;28;20268;-64
2022/12/13 10:25:15;;;;;;;4.93;4.63;;;;;;;11.24;67.23;148866.53;5095392;28;20231;-64
2022/12/13 10:27:44;;;;;;;5.40;5.10;;;;;;;11.04;67.28;148815.91;5095449;28;20658;-64
2022/12/13 10:30:13;;;;;;;6.00;5.33;;;;;;;10.39;66.32;148654.13;5095389;28;20614;-63
2022/12/13 10:32:52;;;;;;;7.20;4.80;;;;;;;10.88;65.56;148775.44;5095358;28;20569;-63
2022/12/13 10:35:23;;;;;;;4.87;4.67;;;;;;;12.12;60.80;149085.41;5095320;28;20249;-64
2022/12/13 10:37:50;;;;;;;5.63;5.17;;;;;;;12.56;56.73;149195.56;5094670;28;20211;-63
2022/12/13 10:40:35;;;;;;;5.17;4.97;;;;;;;13.33;54.11;149388.06;5094991;28;20190;-65
2022/12/13 10:43:12;;;;;;;5.20;4.70;;;;;;;13.06;52.56;149322.19;5093418;28;20193;-63
2022/12/13 10:45:39;;;;;;;5.30;4.97;;;;;;;12.84;53.13;149266.44;5094999;28;20657;-64
2022/12/13 10:48:22;;;;;;;8.00;5.13;;;;;;;12.86;54.32;149271.50;5094778;28;20211;-65
2022/12/13 10:51:01;;;;;;;5.83;5.33;;;;;;;13.49;51.74;149428.63;5094033;28;20207;-63
2022/12/13 10:53:32;;;;;;;5.53;4.70;;;;;;;13.34;51.47;149390.59;5094925;28;20645;-63
2022/12/13 10:56:01;;;;;;;4.33;4.03;;;;;;;13.36;51.92;149396.97;5094434;28;20257;-64
2022/12/13 10:58:35;;;;;;;4.77;4.47;;;;;;;13.89;50.38;149528.72;5094457;28;20180;-65
2022/12/13 11:01:22;;;;;;;4.20;4.00;;;;;;;13.23;48.32;149364.03;5094602;28;20217;-63
2022/12/13 11:04:00;;;;;;;4.80;4.20;;;;;;;14.23;48.14;149613.63;5094685;28;20188;-64
2022/12/13 11:06:28;;;;;;;4.80;4.43;;;;;;;13.11;49.98;149334.84;5094461;28;20184;-63
2022/12/13 11:08:55;;;;;;;4.90;4.13;;;;;;;12.17;52.75;149099.34;5094729;28;20693;-61
2022/12/13 11:11:30;;;;;;;5.20;4.70;;;;;;;12.44;53.56;149165.13;5094438;28;20187;-63
2022/12/13 11:14:02;;;;;;;5.23;4.93;;;;;;;13.28;52.62;149377.94;5094682;28;20187;-64
2022/12/13 11:16:32;;;;;;;4.33;4.13;;;;;;;14.03;49.45;149565.50;5094525;28;20184;-64
2022/12/13 11:19:02;;;;;;;5.13;4.73;;;;;;;14.33;47.19;149639.00;5094240;28;20275;-65
2022/12/13 11:21:31;;;;;;;4.53;4.33;;;;;;;13.65;48.32;149469.19;5094154;28;20180;-64
2022/12/13 11:24:01;;;;;;;4.43;4.23;;;;;;;14.14;47.32;149592.09;5094517;28;20187;-63
2022/12/13 11:26:32;;;;;;;4.30;4.10;;;;;;;13.04;49.15;149317.09;5094050;28;20223;-63
2022/12/13 11:29:12;;;;;;;4.13;3.93;;;;;;;12.40;50.67;149155.00;5093532;28;20563;-64
2022/12/13 11:31:48;;;;;;;4.83;4.53;;;;;;;11.32;53.98;148886.75;5091667;28;20776;-63
2022/12/13 11:34:25;;;;;;;4.90;4.50;;;;;;;10.21;59.75;148607.34;5094087;28;20188;-62
2022/12/13 11:37:00;;;;;;;5.47;5.17;;;;;;;8.70;71.03;148230.91;5094247;28;20202;-64
2022/12/13 11:39:30;;;;;;;4.90;4.60;;;;;;;8.26;76.71;148121.13;5094011;28;20665;-62
2022/12/13 11:42:10;;;;;;;4.60;4.30;;;;;;;7.43;78.63;147914.25;5094001;28;20188;-63
2022/12/13 11:44:45;;;;;;;4.17;3.97;;;;;;;7.12;86.08;147837.41;5093367;28;20654;-63
2022/12/13 11:47:18;;;;;;;4.50;4.30;;;;;;;6.73;85.86;147739.09;5093427;28;20270;-63